createdAt,value
2023-05-14T00:00:44.789Z,14.02
2023-05-14T00:03:11.704Z,13.63
2023-05-14T00:05:38.354Z,13.20
2023-05-14T00:08:05.029Z,12.35
2023-05-14T00:10:31.703Z,12.60
2023-05-14T00:12:58.096Z,13.30
2023-05-14T00:15:24.668Z,13.15
2023-05-14T00:17:51.152Z,13.23
2023-05-14T00:20:17.610Z,13.40
2023-05-14T00:22:44.239Z,13.00
2023-05-14T00:25:10.896Z,13.93
2023-05-14T00:27:39.845Z,13.38
2023-05-14T00:30:06.947Z,13.13
2023-05-14T00:32:33.498Z,13.45
2023-05-14T00:34:59.994Z,13.93
2023-05-14T00:37:26.455Z,13.23
2023-05-14T00:39:52.898Z,14.27
2023-05-14T00:42:19.354Z,13.18
2023-05-14T00:44:45.758Z,13.60
2023-05-14T00:47:12.358Z,14.35
2023-05-14T00:49:40.778Z,14.50
2023-05-14T00:52:07.622Z,13.45
2023-05-14T00:54:35.317Z,13.23
2023-05-14T00:57:02.107Z,13.55
2023-05-14T00:59:28.668Z,13.50
2023-05-14T01:01:55.149Z,12.45
2023-05-14T01:04:21.614Z,13.65
2023-05-14T01:07:07.744Z,12.93
2023-05-14T01:09:45.552Z,13.50
2023-05-14T01:12:44.153Z,13.65
2023-05-14T01:15:22.194Z,13.55
2023-05-14T01:17:54.006Z,14.25
2023-05-14T01:20:20.927Z,13.88
2023-05-14T01:22:47.356Z,13.93
2023-05-14T01:25:13.723Z,13.82
2023-05-14T01:27:45.571Z,13.05
2023-05-14T01:30:25.229Z,14.05
2023-05-14T01:32:54.814Z,13.40
2023-05-14T01:35:24.171Z,13.45
2023-05-14T01:37:51.332Z,13.32
2023-05-14T01:40:17.711Z,12.38
2023-05-14T01:42:44.543Z,13.80
2023-05-14T01:45:11.113Z,13.93
2023-05-14T01:47:37.614Z,12.38
2023-05-14T01:50:04.209Z,14.43
2023-05-14T01:52:30.629Z,13.68
2023-05-14T01:54:58.326Z,13.88
2023-05-14T01:57:24.709Z,14.30
2023-05-14T01:59:51.131Z,14.00
2023-05-14T02:02:17.530Z,14.23
2023-05-14T02:04:43.996Z,13.73
2023-05-14T02:07:10.369Z,14.02
2023-05-14T02:09:36.741Z,12.73
2023-05-14T02:12:03.145Z,12.90
2023-05-14T02:14:29.609Z,14.05
2023-05-14T02:16:56.205Z,13.30
2023-05-14T02:19:22.634Z,13.98
2023-05-14T02:21:49.082Z,14.00
2023-05-14T02:24:15.560Z,14.73
2023-05-14T02:26:42.334Z,13.25
2023-05-14T02:29:08.858Z,13.13
2023-05-14T02:31:35.464Z,12.82
2023-05-14T02:34:02.788Z,14.65
2023-05-14T02:36:29.235Z,13.50
2023-05-14T02:38:55.629Z,13.82
2023-05-14T02:41:22.043Z,13.18
2023-05-14T02:43:48.405Z,12.25
2023-05-14T02:46:14.881Z,11.52
2023-05-14T02:48:41.317Z,12.35
2023-05-14T02:51:07.963Z,11.85
2023-05-14T02:53:34.400Z,11.32
2023-05-14T02:56:00.854Z,11.32
2023-05-14T02:58:28.279Z,10.77
2023-05-14T03:00:54.989Z,12.02
2023-05-14T03:03:21.784Z,10.98
2023-05-14T03:05:48.625Z,12.20
2023-05-14T03:08:15.061Z,11.73
2023-05-14T03:10:41.478Z,10.40
2023-05-14T03:13:07.941Z,11.07
2023-05-14T03:15:34.512Z,11.15
2023-05-14T03:18:00.915Z,11.52
2023-05-14T03:20:27.318Z,12.95
2023-05-14T03:22:54.477Z,13.43
2023-05-14T03:25:20.837Z,12.48
2023-05-14T03:27:47.317Z,13.43
2023-05-14T03:30:13.813Z,12.75
2023-05-14T03:32:40.893Z,13.23
2023-05-14T03:35:07.925Z,12.90
2023-05-14T03:37:34.296Z,13.00
2023-05-14T03:40:00.782Z,12.60
2023-05-14T03:42:27.169Z,12.98
2023-05-14T03:44:53.676Z,12.43
2023-05-14T03:47:20.174Z,12.38
2023-05-14T03:49:46.550Z,13.38
2023-05-14T03:52:12.985Z,12.55
2023-05-14T03:54:41.174Z,13.25
2023-05-14T03:57:07.577Z,13.00
2023-05-14T03:59:33.937Z,13.07
2023-05-14T04:02:00.400Z,12.05
2023-05-14T04:04:26.967Z,13.15
2023-05-14T04:06:53.417Z,13.63
2023-05-14T04:09:19.785Z,13.05
2023-05-14T04:11:46.205Z,12.20
2023-05-14T04:14:12.840Z,12.73
2023-05-14T04:16:39.330Z,13.98
2023-05-14T04:19:05.999Z,12.30
2023-05-14T04:21:32.522Z,12.68
2023-05-14T04:23:58.915Z,13.00
2023-05-14T04:26:25.401Z,12.20
2023-05-14T04:28:52.114Z,12.23
2023-05-14T04:31:18.533Z,12.52
2023-05-14T04:33:44.977Z,12.57
2023-05-14T04:36:11.448Z,12.43
2023-05-14T04:38:37.872Z,12.43
2023-05-14T04:41:04.373Z,12.82
2023-05-14T04:43:30.798Z,13.60
2023-05-14T04:45:57.207Z,13.40
2023-05-14T04:48:23.638Z,13.70
2023-05-14T04:50:50.025Z,14.48
2023-05-14T04:53:16.392Z,13.82
2023-05-14T04:55:42.786Z,14.88
2023-05-14T04:58:09.160Z,15.43
2023-05-14T05:00:35.607Z,15.15
2023-05-14T05:03:02.032Z,13.95
2023-05-14T05:05:28.646Z,15.68
2023-05-14T05:07:55.440Z,14.40
2023-05-14T05:10:22.105Z,15.48
2023-05-14T05:12:48.627Z,14.07
2023-05-14T05:15:15.052Z,14.95
2023-05-14T05:17:41.441Z,14.90
2023-05-14T05:20:09.794Z,14.05
2023-05-14T05:22:36.691Z,16.33
2023-05-14T05:25:06.227Z,15.20
2023-05-14T05:27:35.461Z,15.02
2023-05-14T05:30:02.335Z,14.93
2023-05-14T05:32:28.842Z,13.60
2023-05-14T05:34:55.384Z,13.40
2023-05-14T05:37:21.763Z,14.23
2023-05-14T05:39:48.297Z,14.65
2023-05-14T05:42:14.854Z,14.32
2023-05-14T05:44:41.252Z,14.05
2023-05-14T05:47:07.663Z,13.85
2023-05-14T05:49:34.077Z,13.18
2023-05-14T05:52:00.502Z,13.65
2023-05-14T05:54:27.131Z,13.30
2023-05-14T05:56:53.525Z,12.85
2023-05-14T05:59:20.014Z,12.75
2023-05-14T06:01:46.429Z,12.95
2023-05-14T06:04:12.857Z,12.80
2023-05-14T06:06:39.211Z,13.02
2023-05-14T06:09:07.028Z,12.20
2023-05-14T06:11:33.623Z,12.60
2023-05-14T06:14:00.143Z,12.98
2023-05-14T06:16:26.594Z,12.93
2023-05-14T06:18:54.359Z,13.05
2023-05-14T06:21:20.768Z,12.63
2023-05-14T06:23:47.229Z,12.70
2023-05-14T06:26:13.641Z,13.43
2023-05-14T06:28:40.005Z,13.40
2023-05-14T06:31:06.415Z,14.23
2023-05-14T06:33:32.836Z,12.60
2023-05-14T06:36:00.839Z,12.65
2023-05-14T06:38:27.249Z,12.85
2023-05-14T06:40:53.639Z,12.88
2023-05-14T06:43:20.785Z,14.48
2023-05-14T06:45:51.071Z,12.07
2023-05-14T06:48:21.215Z,11.15
2023-05-14T06:50:48.711Z,11.75
2023-05-14T06:53:15.332Z,11.63
2023-05-14T06:55:41.917Z,10.55
2023-05-14T06:58:08.644Z,10.57
2023-05-14T07:00:35.223Z,10.82
2023-05-14T07:03:01.626Z,10.45
2023-05-14T07:05:28.049Z,11.65
2023-05-14T07:07:54.464Z,10.20
2023-05-14T07:10:21.061Z,12.15
2023-05-14T07:12:47.849Z,12.02
2023-05-14T07:15:14.300Z,12.00
2023-05-14T07:17:40.967Z,12.68
2023-05-14T07:20:07.903Z,11.35
2023-05-14T07:22:34.356Z,11.40
2023-05-14T07:25:00.798Z,11.90
2023-05-14T07:27:27.181Z,10.55
2023-05-14T07:29:53.543Z,10.98
2023-05-14T07:32:20.094Z,11.57
2023-05-14T07:34:46.545Z,10.30
2023-05-14T07:37:12.968Z,10.73
2023-05-14T07:39:41.542Z,11.27
2023-05-14T07:42:07.891Z,10.15
2023-05-14T07:44:34.242Z,9.98
2023-05-14T07:47:00.758Z,9.75
2023-05-14T07:49:27.231Z,9.25
2023-05-14T07:51:53.603Z,9.40
2023-05-14T07:54:20.006Z,9.48
2023-05-14T07:56:46.428Z,9.05
2023-05-14T07:59:12.856Z,8.57
2023-05-14T08:01:39.578Z,9.00
2023-05-14T08:04:06.165Z,9.23
2023-05-14T08:06:32.710Z,9.35
2023-05-14T08:08:59.206Z,8.70
2023-05-14T08:11:26.216Z,9.65
2023-05-14T08:13:52.799Z,8.80
2023-05-14T08:16:19.246Z,7.88
2023-05-14T08:18:45.738Z,8.48
2023-05-14T08:21:12.180Z,7.30
2023-05-14T08:23:38.594Z,7.55
2023-05-14T08:26:05.050Z,7.63
2023-05-14T08:28:31.424Z,6.78
2023-05-14T08:30:57.905Z,6.90
2023-05-14T08:33:24.415Z,8.25
2023-05-14T08:35:52.975Z,7.22
2023-05-14T08:38:19.387Z,7.00
2023-05-14T08:40:52.637Z,6.72
2023-05-14T08:43:20.679Z,7.30
2023-05-14T08:45:49.576Z,7.15
2023-05-14T08:48:18.060Z,6.25
2023-05-14T08:50:44.566Z,6.80
2023-05-14T08:53:10.967Z,6.75
2023-05-14T08:55:37.704Z,6.18
2023-05-14T08:58:04.217Z,6.38
2023-05-14T09:00:30.821Z,6.57
2023-05-14T09:02:57.594Z,6.35
2023-05-14T09:05:24.429Z,4.78
2023-05-14T09:07:50.856Z,5.88
2023-05-14T09:10:17.573Z,5.50
2023-05-14T09:12:44.043Z,6.00
2023-05-14T09:15:10.963Z,5.90
2023-05-14T09:17:37.548Z,5.35
2023-05-14T09:20:04.453Z,5.03
2023-05-14T09:22:33.439Z,5.60
2023-05-14T09:25:11.926Z,5.53
2023-05-14T09:27:38.708Z,4.95
2023-05-14T09:30:10.620Z,5.68
2023-05-14T09:32:41.249Z,5.63
2023-05-14T09:35:17.830Z,5.63
2023-05-14T09:37:46.358Z,5.65
2023-05-14T09:40:13.881Z,4.97
2023-05-14T09:42:40.529Z,4.85
2023-05-14T09:45:08.582Z,5.15
2023-05-14T09:47:35.802Z,4.88
2023-05-14T09:50:02.858Z,5.50
2023-05-14T09:52:29.396Z,5.43
2023-05-14T09:54:55.942Z,5.13
2023-05-14T09:57:22.446Z,5.63
2023-05-14T09:59:48.913Z,5.40
2023-05-14T10:02:29.340Z,4.97
2023-05-14T10:04:58.791Z,4.93
2023-05-14T10:07:29.593Z,5.75
2023-05-14T10:09:59.982Z,5.80
2023-05-14T10:12:29.689Z,5.32
2023-05-14T10:14:57.161Z,4.97
2023-05-14T10:17:25.094Z,5.80
2023-05-14T10:19:53.984Z,6.05
2023-05-14T10:22:23.373Z,5.90
2023-05-14T10:24:52.478Z,5.75
2023-05-14T10:27:21.449Z,5.32
2023-05-14T10:29:55.411Z,5.75
2023-05-14T10:32:25.070Z,5.78
2023-05-14T10:34:52.488Z,5.90
2023-05-14T10:37:21.532Z,6.65
2023-05-14T10:39:51.668Z,5.93
2023-05-14T10:42:19.029Z,6.13
2023-05-14T10:44:51.406Z,6.68
2023-05-14T10:47:18.417Z,6.03
2023-05-14T10:49:45.911Z,6.95
2023-05-14T10:52:12.448Z,6.60
2023-05-14T10:54:38.959Z,6.15
2023-05-14T10:57:11.434Z,6.57
2023-05-14T10:59:41.700Z,6.15
2023-05-14T11:02:19.342Z,7.40
2023-05-14T11:05:05.009Z,6.85
2023-05-14T11:07:33.385Z,7.70
2023-05-14T11:10:05.030Z,7.45
2023-05-14T11:14:59.158Z,7.55
2023-05-14T11:17:27.077Z,7.85
2023-05-14T11:19:53.889Z,8.85
2023-05-14T11:22:20.829Z,8.45
2023-05-14T11:24:47.320Z,8.50
2023-05-14T11:27:13.807Z,7.93
2023-05-14T11:29:43.785Z,8.13
2023-05-14T11:32:10.420Z,9.13
2023-05-14T11:34:37.361Z,8.63
2023-05-14T11:37:05.106Z,9.77
2023-05-14T11:39:32.938Z,7.88
2023-05-14T11:42:02.354Z,8.40
2023-05-14T11:44:28.754Z,7.70
2023-05-14T11:46:58.982Z,8.70
2023-05-14T11:49:25.794Z,7.40
2023-05-14T11:52:02.114Z,6.97
2023-05-14T11:54:29.421Z,7.50
2023-05-14T11:56:56.654Z,8.68
2023-05-14T11:59:27.688Z,8.55
2023-05-14T12:01:55.194Z,8.60
2023-05-14T12:04:22.821Z,8.57
2023-05-14T12:06:50.225Z,9.20
2023-05-14T12:09:17.980Z,9.02
2023-05-14T12:11:46.378Z,7.80
2023-05-14T12:14:20.830Z,8.20
2023-05-14T12:16:47.916Z,7.28
2023-05-14T12:19:15.507Z,9.23
2023-05-14T12:21:46.870Z,8.60
2023-05-14T12:24:15.595Z,8.07
2023-05-14T12:26:46.875Z,7.88
2023-05-14T12:29:14.622Z,8.13
2023-05-14T12:31:48.563Z,7.60
2023-05-14T12:34:15.749Z,7.22
2023-05-14T12:36:42.767Z,7.13
2023-05-14T12:39:09.980Z,7.93
2023-05-14T12:41:36.905Z,6.78
2023-05-14T12:44:06.308Z,7.80
2023-05-14T12:46:34.018Z,7.40
2023-05-14T12:49:00.566Z,7.35
2023-05-14T12:51:27.002Z,8.52
2023-05-14T12:53:54.202Z,7.70
2023-05-14T12:56:21.908Z,7.75
2023-05-14T12:58:48.309Z,7.60
2023-05-14T13:01:14.739Z,8.70
2023-05-14T13:03:41.549Z,8.43
2023-05-14T13:06:07.994Z,8.20
2023-05-14T13:08:35.129Z,7.65
2023-05-14T13:11:01.490Z,8.32
2023-05-14T13:13:27.911Z,8.70
2023-05-14T13:15:54.271Z,7.72
2023-05-14T13:18:20.843Z,8.40
2023-05-14T13:20:47.589Z,9.52
2023-05-14T13:23:14.538Z,8.35
2023-05-14T13:25:41.002Z,8.55
2023-05-14T13:28:08.278Z,9.43
2023-05-14T13:30:34.679Z,8.15
2023-05-14T13:33:01.146Z,7.97
2023-05-14T13:35:27.601Z,7.80
2023-05-14T13:37:53.997Z,8.10
2023-05-14T13:40:20.385Z,7.80
2023-05-14T13:42:46.749Z,7.82
2023-05-14T13:45:13.146Z,8.00
2023-05-14T13:47:40.283Z,6.85
2023-05-14T13:50:07.274Z,8.43
2023-05-14T13:52:33.649Z,6.78
2023-05-14T13:55:00.046Z,6.75
2023-05-14T13:57:26.918Z,7.50
2023-05-14T13:59:53.336Z,7.53
2023-05-14T14:02:19.745Z,7.75
2023-05-14T14:04:46.158Z,7.60
2023-05-14T14:07:12.657Z,7.68
2023-05-14T14:09:39.105Z,8.25
2023-05-14T14:12:06.246Z,7.30
2023-05-14T14:14:32.724Z,7.57
2023-05-14T14:16:59.136Z,8.27
2023-05-14T14:19:25.536Z,7.95
2023-05-14T14:21:51.982Z,8.13
2023-05-14T14:24:18.368Z,8.02
2023-05-14T14:26:44.789Z,7.80
2023-05-14T14:29:11.242Z,7.57
2023-05-14T14:31:37.796Z,7.18
2023-05-14T14:34:04.178Z,6.32
2023-05-14T14:36:31.650Z,8.10
2023-05-14T14:38:58.134Z,7.30
2023-05-14T14:41:24.663Z,7.10
2023-05-14T14:43:51.077Z,5.80
2023-05-14T14:46:17.562Z,7.07
2023-05-14T14:48:43.983Z,7.28
2023-05-14T14:51:10.400Z,7.07
2023-05-14T14:53:37.292Z,6.85
2023-05-14T14:56:04.093Z,7.05
2023-05-14T14:58:31.102Z,6.35
2023-05-14T15:00:58.428Z,7.20
2023-05-14T15:03:25.661Z,6.07
2023-05-14T15:05:53.379Z,8.07
2023-05-14T15:08:20.818Z,7.80
2023-05-14T15:10:47.272Z,7.65
2023-05-14T15:13:13.703Z,7.88
2023-05-14T15:15:40.150Z,8.00
2023-05-14T15:18:06.585Z,6.95
2023-05-14T15:20:33.044Z,7.28
2023-05-14T15:22:59.573Z,7.10
2023-05-14T15:25:26.599Z,6.40
2023-05-14T15:27:53.104Z,6.95
2023-05-14T15:30:19.635Z,6.95
2023-05-14T15:32:46.479Z,7.10
2023-05-14T15:35:13.101Z,6.93
2023-05-14T15:37:41.652Z,6.72
2023-05-14T15:40:09.133Z,6.63
2023-05-14T15:42:41.977Z,6.85
2023-05-14T15:45:10.235Z,7.30
2023-05-14T15:47:36.681Z,6.60
2023-05-14T15:50:03.808Z,7.70
2023-05-14T15:52:30.342Z,6.88
2023-05-14T15:54:57.406Z,7.22
2023-05-14T15:57:24.065Z,8.05
2023-05-14T15:59:51.383Z,8.23
2023-05-14T16:02:17.874Z,9.05
2023-05-14T16:04:45.140Z,8.80
2023-05-14T16:07:12.098Z,8.90
2023-05-14T16:09:38.990Z,9.15
2023-05-14T16:12:06.625Z,9.52
2023-05-14T16:14:34.461Z,8.35
2023-05-14T16:17:01.983Z,8.48
2023-05-14T16:19:28.603Z,9.02
2023-05-14T16:21:55.057Z,8.43
2023-05-14T16:24:21.575Z,9.23
2023-05-14T16:26:47.993Z,8.95
2023-05-14T16:29:14.438Z,9.10
2023-05-14T16:31:40.858Z,8.32
2023-05-14T16:34:07.262Z,8.73
2023-05-14T16:36:33.646Z,8.55
2023-05-14T16:39:07.361Z,8.15
2023-05-14T16:41:35.303Z,7.50
2023-05-14T16:44:01.765Z,8.30
2023-05-14T16:46:29.369Z,8.60
2023-05-14T16:48:56.227Z,7.85
2023-05-14T16:51:22.698Z,8.05
2023-05-14T16:53:49.134Z,8.70
2023-05-14T16:56:15.586Z,9.02
2023-05-14T16:58:42.011Z,9.13
2023-05-14T17:01:09.916Z,7.57
2023-05-14T17:03:36.823Z,8.50
2023-05-14T17:06:04.550Z,8.75
2023-05-14T17:08:33.495Z,8.55
2023-05-14T17:11:00.175Z,8.65
2023-05-14T17:13:26.658Z,7.85
2023-05-14T17:15:53.153Z,7.60
2023-05-14T17:18:19.674Z,7.38
2023-05-14T17:20:46.261Z,7.93
2023-05-14T17:23:12.846Z,6.68
2023-05-14T17:25:39.264Z,7.10
2023-05-14T17:28:05.945Z,5.85
2023-05-14T17:30:32.405Z,6.25
2023-05-14T17:32:58.960Z,6.13
2023-05-14T17:35:25.950Z,7.18
2023-05-14T17:37:52.521Z,7.22
2023-05-14T17:40:18.906Z,6.32
2023-05-14T17:42:45.477Z,7.25
2023-05-14T17:45:13.187Z,7.47
2023-05-14T17:47:39.808Z,7.90
2023-05-14T17:50:07.145Z,8.02
2023-05-14T17:52:33.536Z,7.68
2023-05-14T17:54:59.946Z,7.78
2023-05-14T17:57:27.660Z,7.10
2023-05-14T17:59:54.318Z,8.15
2023-05-14T18:02:20.768Z,8.32
2023-05-14T18:04:47.244Z,7.90
2023-05-14T18:07:13.780Z,8.10
2023-05-14T18:09:40.514Z,7.75
2023-05-14T18:12:07.425Z,7.55
2023-05-14T18:14:33.831Z,8.60
2023-05-14T18:17:00.272Z,8.85
2023-05-14T18:19:27.010Z,7.97
2023-05-14T18:21:55.441Z,9.18
2023-05-14T18:24:22.334Z,8.82
2023-05-14T18:26:48.815Z,8.18
2023-05-14T18:29:15.298Z,8.35
2023-05-14T18:31:41.708Z,9.13
2023-05-14T18:34:08.200Z,7.57
2023-05-14T18:36:34.680Z,7.95
2023-05-14T18:39:01.064Z,7.00
2023-05-14T18:41:27.471Z,8.13
2023-05-14T18:43:53.816Z,7.72
2023-05-14T18:46:20.257Z,7.80
2023-05-14T18:48:46.685Z,7.63
2023-05-14T18:51:13.068Z,7.68
2023-05-14T18:53:39.460Z,6.78
2023-05-14T18:56:05.914Z,6.50
2023-05-14T18:58:33.679Z,6.45
2023-05-14T19:01:00.219Z,5.97
2023-05-14T19:03:26.767Z,6.97
2023-05-14T19:05:53.754Z,5.97
2023-05-14T19:08:20.399Z,5.88
2023-05-14T19:10:47.094Z,5.97
2023-05-14T19:13:13.515Z,5.95
2023-05-14T19:15:39.948Z,5.53
2023-05-14T19:18:06.716Z,5.55
2023-05-14T19:20:33.112Z,6.20
2023-05-14T19:22:59.458Z,6.45
2023-05-14T19:25:25.985Z,5.70
2023-05-14T19:27:55.192Z,6.22
2023-05-14T19:30:23.278Z,6.47
2023-05-14T19:32:49.843Z,5.53
2023-05-14T19:35:16.568Z,5.97
2023-05-14T19:37:42.996Z,6.15
2023-05-14T19:40:09.664Z,5.80
2023-05-14T19:42:36.097Z,5.85
2023-05-14T19:45:03.690Z,6.68
2023-05-14T19:47:30.154Z,6.10
2023-05-14T19:49:56.605Z,6.43
2023-05-14T19:52:23.005Z,6.20
2023-05-14T19:54:49.441Z,6.50
2023-05-14T19:57:15.830Z,6.38
2023-05-14T19:59:42.304Z,6.35
2023-05-14T20:02:09.089Z,7.22
2023-05-14T20:04:35.591Z,6.70
2023-05-14T20:07:01.989Z,7.03
2023-05-14T20:09:28.422Z,7.78
2023-05-14T20:11:54.839Z,7.50
2023-05-14T20:14:21.373Z,7.88
2023-05-14T20:16:48.864Z,7.90
2023-05-14T20:19:16.292Z,6.90
2023-05-14T20:21:42.800Z,7.00
2023-05-14T20:24:09.161Z,7.63
2023-05-14T20:26:35.751Z,7.95
2023-05-14T20:29:02.114Z,7.20
2023-05-14T20:31:28.675Z,7.57
2023-05-14T20:33:55.335Z,6.90
2023-05-14T20:36:22.187Z,7.28
2023-05-14T20:38:48.598Z,7.60
2023-05-14T20:41:15.077Z,7.47
2023-05-14T20:43:41.446Z,8.18
2023-05-14T20:46:07.913Z,7.43
2023-05-14T20:48:34.418Z,8.02
2023-05-14T20:51:01.621Z,8.55
2023-05-14T20:53:28.674Z,9.15
2023-05-14T20:55:56.026Z,8.30
2023-05-14T20:58:22.475Z,8.82
2023-05-14T21:00:48.876Z,8.27
2023-05-14T21:03:15.427Z,8.80
2023-05-14T21:05:43.530Z,9.73
2023-05-14T21:08:10.026Z,9.27
2023-05-14T21:10:36.408Z,8.77
2023-05-14T21:13:02.852Z,9.10
2023-05-14T21:15:30.623Z,8.98
2023-05-14T21:17:57.084Z,8.57
2023-05-14T21:20:23.480Z,8.68
2023-05-14T21:22:49.840Z,8.77
2023-05-14T21:25:16.256Z,7.72
2023-05-14T21:27:42.951Z,8.25
2023-05-14T21:30:09.891Z,9.35
2023-05-14T21:32:36.327Z,9.65
2023-05-14T21:35:03.058Z,9.52
2023-05-14T21:37:29.450Z,9.40
2023-05-14T21:39:55.847Z,8.75
2023-05-14T21:42:22.255Z,9.55
2023-05-14T21:44:48.626Z,9.05
2023-05-14T21:47:16.004Z,9.57
2023-05-14T21:49:43.053Z,10.18
2023-05-14T21:52:09.513Z,9.57
2023-05-14T21:54:35.921Z,9.15
2023-05-14T21:57:02.330Z,9.55
2023-05-14T21:59:28.695Z,9.80
2023-05-14T22:02:06.759Z,9.15
2023-05-14T22:04:34.256Z,10.25
2023-05-14T22:07:01.420Z,9.52
2023-05-14T22:09:27.787Z,10.27
2023-05-14T22:11:54.159Z,10.57
2023-05-14T22:14:20.684Z,11.25
2023-05-14T22:16:47.292Z,12.23
2023-05-14T22:19:16.415Z,11.57
2023-05-14T22:21:42.897Z,11.80
2023-05-14T22:24:09.257Z,11.60
2023-05-14T22:26:35.635Z,12.27
2023-05-14T22:29:02.002Z,12.18
2023-05-14T22:31:28.414Z,11.50
2023-05-14T22:33:54.860Z,12.30
2023-05-14T22:36:21.294Z,12.25
2023-05-14T22:38:47.860Z,11.65
2023-05-14T22:41:14.347Z,13.07
2023-05-14T22:43:40.837Z,11.45
2023-05-14T22:46:07.322Z,11.15
2023-05-14T22:48:33.753Z,11.98
2023-05-14T22:51:00.239Z,11.93
2023-05-14T22:53:27.507Z,11.50
2023-05-14T22:55:53.938Z,12.20
2023-05-14T22:58:20.345Z,10.88
2023-05-14T23:00:46.965Z,11.55
2023-05-14T23:03:13.347Z,11.52
2023-05-14T23:05:39.830Z,11.77
2023-05-14T23:08:06.443Z,12.27
2023-05-14T23:10:33.664Z,10.82
2023-05-14T23:13:00.044Z,10.93
2023-05-14T23:15:27.122Z,11.05
2023-05-14T23:17:53.882Z,13.13
2023-05-14T23:20:20.309Z,12.18
2023-05-14T23:22:46.757Z,11.50
2023-05-14T23:25:13.286Z,13.18
2023-05-14T23:27:39.672Z,12.95
2023-05-14T23:30:06.839Z,13.32
2023-05-14T23:32:33.270Z,13.27
2023-05-14T23:34:59.755Z,13.40
2023-05-14T23:37:26.234Z,12.07
2023-05-14T23:39:53.162Z,12.07
2023-05-14T23:42:20.130Z,12.27
2023-05-14T23:44:46.578Z,12.38
2023-05-14T23:47:13.084Z,11.85
2023-05-14T23:49:40.672Z,12.27
2023-05-14T23:52:07.301Z,12.82
2023-05-14T23:54:33.719Z,12.90
2023-05-14T23:57:00.165Z,12.10
2023-05-14T23:59:26.666Z,11.35
